createdAt,value
2022-08-02T00:01:04.401Z,100.00
2022-08-02T00:03:33.168Z,100.00
2022-08-02T00:06:02.098Z,100.00
2022-08-02T00:08:30.598Z,100.00
2022-08-02T00:10:59.036Z,100.00
2022-08-02T00:13:27.482Z,100.00
2022-08-02T00:15:56.597Z,100.00
2022-08-02T00:18:25.155Z,100.00
2022-08-02T00:20:53.535Z,100.00
2022-08-02T00:23:21.970Z,100.00
2022-08-02T00:25:55.269Z,100.00
2022-08-02T00:28:27.993Z,100.00
2022-08-02T00:30:58.537Z,100.00
2022-08-02T00:34:05.295Z,100.00
2022-08-02T00:36:16.092Z,100.00
2022-08-02T00:38:45.187Z,100.00
2022-08-02T00:41:16.722Z,100.00
2022-08-02T00:43:48.855Z,100.00
2022-08-02T00:46:18.439Z,100.00
2022-08-02T00:48:48.106Z,100.00
2022-08-02T00:51:18.252Z,100.00
2022-08-02T00:53:47.117Z,100.00
2022-08-02T00:56:15.582Z,100.00
2022-08-02T00:58:43.988Z,100.00
2022-08-02T01:01:12.651Z,100.00
2022-08-02T01:03:41.222Z,100.00
2022-08-02T01:06:11.786Z,100.00
2022-08-02T01:08:41.634Z,100.00
2022-08-02T01:11:12.327Z,100.00
2022-08-02T01:13:41.266Z,100.00
2022-08-02T01:16:16.116Z,100.00
2022-08-02T01:18:48.178Z,100.00
2022-08-02T01:21:41.265Z,100.00
2022-08-02T01:24:35.403Z,100.00
2022-08-02T01:27:03.770Z,100.00
2022-08-02T01:29:37.376Z,100.00
2022-08-02T01:32:14.156Z,100.00
2022-08-02T01:34:49.669Z,100.00
2022-08-02T01:37:35.205Z,100.00
2022-08-02T01:40:14.269Z,100.00
2022-08-02T01:42:54.135Z,100.00
2022-08-02T01:45:29.701Z,100.00
2022-08-02T01:48:00.237Z,100.00
2022-08-02T01:50:33.769Z,100.00
2022-08-02T01:53:07.729Z,100.00
2022-08-02T01:55:56.762Z,100.00
2022-08-02T01:58:28.657Z,100.00
2022-08-02T02:00:58.363Z,100.00
2022-08-02T02:03:29.223Z,100.00
2022-08-02T02:06:01.545Z,100.00
2022-08-02T02:08:36.588Z,100.00
2022-08-02T02:12:08.645Z,100.00
2022-08-02T02:13:58.928Z,100.00
2022-08-02T02:16:28.659Z,100.00
2022-08-02T02:18:57.661Z,100.00
2022-08-02T02:21:27.101Z,100.00
2022-08-02T02:23:55.770Z,100.00
2022-08-02T02:26:29.744Z,100.00
2022-08-02T02:29:02.847Z,100.00
2022-08-02T02:31:39.129Z,100.00
2022-08-02T02:34:07.408Z,100.00
2022-08-02T02:36:38.249Z,100.00
2022-08-02T02:39:13.061Z,100.00
2022-08-02T02:41:44.812Z,100.00
2022-08-02T02:44:18.785Z,100.00
2022-08-02T02:46:51.061Z,100.00
2022-08-02T02:49:21.491Z,100.00
2022-08-02T02:51:51.515Z,100.00
2022-08-02T02:54:32.698Z,100.00
2022-08-02T02:57:05.863Z,100.00
2022-08-02T02:59:42.921Z,100.00
2022-08-02T03:02:19.842Z,100.00
2022-08-02T03:04:56.877Z,100.00
2022-08-02T03:07:26.997Z,100.00
2022-08-02T03:09:55.755Z,100.00
2022-08-02T03:12:30.543Z,100.00
2022-08-02T03:15:06.559Z,100.00
2022-08-02T03:17:43.362Z,100.00
2022-08-02T03:20:14.912Z,100.00
2022-08-02T03:22:45.003Z,100.00
2022-08-02T03:25:14.634Z,100.00
2022-08-02T03:27:43.556Z,100.00
2022-08-02T03:30:13.709Z,100.00
2022-08-02T03:32:47.036Z,100.00
2022-08-02T03:35:23.287Z,100.00
2022-08-02T03:37:57.764Z,100.00
2022-08-02T03:40:28.226Z,100.00
2022-08-02T03:42:57.504Z,100.00
2022-08-02T03:45:26.541Z,100.00
2022-08-02T03:47:58.784Z,100.00
2022-08-02T03:50:28.230Z,100.00
2022-08-02T03:52:57.351Z,100.00
2022-08-02T03:55:26.534Z,100.00
2022-08-02T03:57:54.930Z,100.00
2022-08-02T04:00:23.743Z,100.00
2022-08-02T04:02:52.313Z,100.00
2022-08-02T04:05:20.918Z,100.00
2022-08-02T04:08:33.787Z,100.00
2022-08-02T04:10:56.288Z,100.00
2022-08-02T04:13:31.858Z,100.00
2022-08-02T04:16:31.560Z,100.00
2022-08-02T04:19:05.622Z,100.00
2022-08-02T04:21:51.174Z,100.00
2022-08-02T04:24:24.797Z,100.00
2022-08-02T04:26:58.056Z,100.00
2022-08-02T04:29:36.628Z,100.00
2022-08-02T04:32:05.655Z,100.00
2022-08-02T04:34:34.636Z,100.00
2022-08-02T04:37:03.150Z,100.00
2022-08-02T04:39:31.747Z,100.00
2022-08-02T04:42:00.251Z,100.00
2022-08-02T04:44:28.883Z,100.00
2022-08-02T04:47:04.789Z,100.00
2022-08-02T04:49:35.068Z,100.00
2022-08-02T04:52:03.768Z,100.00
2022-08-02T04:54:32.114Z,100.00
2022-08-02T04:57:00.684Z,100.00
2022-08-02T04:59:29.020Z,100.00
2022-08-02T05:01:57.302Z,100.00
2022-08-02T05:04:25.930Z,100.00
2022-08-02T05:06:54.260Z,100.00
2022-08-02T05:09:22.562Z,100.00
2022-08-02T05:11:55.121Z,100.00
2022-08-02T05:14:23.682Z,100.00
2022-08-02T05:16:52.197Z,100.00
2022-08-02T05:19:20.683Z,100.00
2022-08-02T05:21:49.055Z,100.00
2022-08-02T05:24:17.414Z,100.00
2022-08-02T05:26:45.914Z,100.00
2022-08-02T05:29:14.335Z,98.86
2022-08-02T05:31:43.189Z,96.64
2022-08-02T05:34:12.270Z,94.71
2022-08-02T05:36:42.364Z,92.34
2022-08-02T05:39:12.419Z,90.48
2022-08-02T05:41:47.868Z,89.79
2022-08-02T05:44:16.659Z,92.16
2022-08-02T05:46:45.416Z,93.02
2022-08-02T05:49:19.365Z,91.58
2022-08-02T05:52:15.019Z,89.42
2022-08-02T05:54:52.892Z,90.95
2022-08-02T05:57:43.430Z,88.78
2022-08-02T06:00:14.514Z,87.24
2022-08-02T06:02:44.040Z,85.13
2022-08-02T06:05:14.455Z,83.87
2022-08-02T06:07:44.669Z,84.05
2022-08-02T06:10:15.020Z,84.78
2022-08-02T06:12:48.720Z,84.91
2022-08-02T06:15:19.302Z,85.66
2022-08-02T06:17:48.066Z,86.66
2022-08-02T06:20:16.527Z,87.11
2022-08-02T06:22:45.360Z,87.66
2022-08-02T06:25:49.902Z,88.10
2022-08-02T06:28:10.646Z,88.88
2022-08-02T06:30:40.927Z,90.16
2022-08-02T06:33:09.628Z,91.73
2022-08-02T06:36:19.648Z,92.51
2022-08-02T06:39:17.976Z,92.24
2022-08-02T06:41:49.525Z,92.95
2022-08-02T06:44:47.835Z,93.07
2022-08-02T06:47:14.069Z,93.41
2022-08-02T06:49:52.087Z,94.30
2022-08-02T06:52:28.439Z,96.64
2022-08-02T06:54:59.925Z,95.46
2022-08-02T06:57:30.497Z,96.40
2022-08-02T07:00:01.788Z,97.10
2022-08-02T07:02:31.306Z,96.60
2022-08-02T07:04:59.880Z,96.99
2022-08-02T07:07:28.298Z,96.02
2022-08-02T07:10:01.283Z,96.36
2022-08-02T07:12:34.191Z,97.30
2022-08-02T07:15:06.086Z,96.98
2022-08-02T07:17:36.009Z,96.83
2022-08-02T07:20:05.173Z,96.08
2022-08-02T07:22:33.619Z,96.10
2022-08-02T07:25:02.553Z,96.56
2022-08-02T07:27:31.242Z,96.85
2022-08-02T07:30:00.660Z,96.71
2022-08-02T07:32:32.121Z,96.12
2022-08-02T07:35:02.670Z,95.15
2022-08-02T07:37:54.984Z,95.41
2022-08-02T07:40:27.579Z,94.21
2022-08-02T07:43:03.102Z,93.50
2022-08-02T07:45:35.620Z,93.64
2022-08-02T07:48:06.066Z,93.48
2022-08-02T07:50:34.870Z,93.20
2022-08-02T07:53:03.493Z,93.32
2022-08-02T07:55:40.174Z,92.67
2022-08-02T07:58:13.538Z,92.97
2022-08-02T08:00:43.646Z,92.18
2022-08-02T08:03:13.192Z,90.92
2022-08-02T08:05:41.933Z,91.21
2022-08-02T08:08:16.694Z,90.45
2022-08-02T08:10:46.690Z,89.52
2022-08-02T08:13:16.196Z,88.54
2022-08-02T08:15:52.131Z,87.48
2022-08-02T08:18:22.157Z,88.74
2022-08-02T08:20:51.761Z,88.04
2022-08-02T08:23:20.223Z,86.48
2022-08-02T08:25:48.740Z,84.50
2022-08-02T08:28:17.339Z,82.24
2022-08-02T08:30:47.333Z,82.17
2022-08-02T08:33:16.442Z,81.17
2022-08-02T08:35:44.852Z,80.35
2022-08-02T08:38:15.713Z,80.09
2022-08-02T08:40:44.897Z,81.06
2022-08-02T08:43:14.366Z,80.76
2022-08-02T08:45:55.868Z,78.71
2022-08-02T08:48:31.014Z,79.87
2022-08-02T08:51:21.621Z,76.83
2022-08-02T08:53:54.238Z,78.88
2022-08-02T08:56:23.519Z,76.90
2022-08-02T08:58:51.969Z,77.09
2022-08-02T09:01:21.583Z,78.15
2022-08-02T09:03:50.038Z,78.79
2022-08-02T09:06:20.613Z,78.32
2022-08-02T09:08:49.657Z,78.38
2022-08-02T09:11:20.335Z,77.33
2022-08-02T09:14:00.899Z,74.72
2022-08-02T09:16:42.349Z,75.04
2022-08-02T09:19:26.026Z,75.19
2022-08-02T09:22:04.837Z,75.67
2022-08-02T09:24:53.904Z,73.27
2022-08-02T09:27:23.406Z,74.88
2022-08-02T09:30:12.497Z,73.80
2022-08-02T09:32:47.097Z,71.34
2022-08-02T09:36:05.349Z,71.56
2022-08-02T09:38:26.436Z,71.74
2022-08-02T09:40:55.927Z,71.55
2022-08-02T09:44:03.276Z,69.38
2022-08-02T09:46:33.554Z,70.30
2022-08-02T09:49:05.406Z,70.61
2022-08-02T09:51:48.754Z,69.83
2022-08-02T09:54:29.106Z,70.06
2022-08-02T09:56:59.971Z,69.91
2022-08-02T09:59:29.184Z,69.24
2022-08-02T10:02:02.231Z,69.35
2022-08-02T10:04:34.325Z,67.59
2022-08-02T10:07:23.010Z,68.49
2022-08-02T10:09:52.129Z,68.87
2022-08-02T10:12:23.814Z,67.44
2022-08-02T10:14:52.765Z,68.03
2022-08-02T10:17:21.441Z,67.11
2022-08-02T10:20:02.706Z,67.58
2022-08-02T10:22:35.442Z,68.13
2022-08-02T10:25:06.045Z,68.24
2022-08-02T10:27:55.450Z,69.38
2022-08-02T10:30:27.392Z,69.25
2022-08-02T10:32:59.903Z,68.11
2022-08-02T10:35:31.124Z,67.80
2022-08-02T10:38:03.515Z,67.81
2022-08-02T10:40:47.323Z,68.22
2022-08-02T10:43:37.025Z,68.67
2022-08-02T10:46:20.419Z,68.26
2022-08-02T10:49:18.509Z,67.62
2022-08-02T10:52:06.047Z,69.06
2022-08-02T10:54:42.543Z,69.68
2022-08-02T10:57:19.141Z,69.17
2022-08-02T10:59:49.241Z,69.24
2022-08-02T11:02:38.998Z,67.98
2022-08-02T11:05:10.379Z,69.87
2022-08-02T11:07:42.431Z,70.13
2022-08-02T11:10:25.250Z,69.56
2022-08-02T11:13:11.897Z,68.92
2022-08-02T11:16:01.734Z,71.00
2022-08-02T11:18:51.846Z,71.41
2022-08-02T11:21:25.373Z,71.85
2022-08-02T11:23:55.070Z,70.73
2022-08-02T11:26:30.014Z,69.64
2022-08-02T11:29:04.200Z,70.26
2022-08-02T11:31:43.541Z,69.52
2022-08-02T11:34:36.779Z,69.59
2022-08-02T11:37:01.144Z,71.01
2022-08-02T11:39:29.565Z,70.44
2022-08-02T11:42:00.896Z,71.90
2022-08-02T11:44:40.950Z,68.99
2022-08-02T11:47:14.337Z,70.54
2022-08-02T11:49:44.878Z,70.11
2022-08-02T11:52:13.873Z,70.46
2022-08-02T11:54:43.792Z,70.68
2022-08-02T11:57:20.292Z,70.07
2022-08-02T11:59:52.081Z,71.06
2022-08-02T12:02:29.148Z,70.99
2022-08-02T12:05:02.128Z,71.55
2022-08-02T12:07:36.039Z,71.63
2022-08-02T12:10:18.707Z,71.46
2022-08-02T12:13:07.636Z,70.46
2022-08-02T12:15:41.813Z,71.40
2022-08-02T12:18:41.113Z,71.59
2022-08-02T12:21:26.779Z,71.69
2022-08-02T12:23:59.266Z,72.09
2022-08-02T12:26:29.985Z,72.50
2022-08-02T12:28:59.782Z,72.84
2022-08-02T12:31:55.893Z,71.03
2022-08-02T12:34:31.493Z,72.37
2022-08-02T12:37:00.897Z,73.71
2022-08-02T12:39:43.694Z,74.38
2022-08-02T12:42:14.834Z,74.77
2022-08-02T12:44:54.303Z,74.29
2022-08-02T12:47:22.733Z,74.98
2022-08-02T12:50:24.632Z,75.80
2022-08-02T12:53:15.631Z,76.06
2022-08-02T12:56:01.154Z,75.59
2022-08-02T12:58:46.276Z,74.55
2022-08-02T13:01:21.525Z,75.03
2022-08-02T13:04:11.062Z,75.52
2022-08-02T13:06:44.416Z,75.18
2022-08-02T13:09:17.775Z,75.29
2022-08-02T13:11:49.001Z,75.43
2022-08-02T13:14:17.688Z,75.71
2022-08-02T13:16:47.147Z,75.76
2022-08-02T13:19:16.105Z,76.43
2022-08-02T13:22:01.098Z,76.59
2022-08-02T13:24:40.150Z,76.87
2022-08-02T13:27:21.830Z,77.15
2022-08-02T13:29:51.805Z,77.47
2022-08-02T13:32:21.058Z,77.55
2022-08-02T13:34:50.632Z,77.54
2022-08-02T13:37:19.922Z,78.18
2022-08-02T13:40:11.874Z,78.88
2022-08-02T13:42:36.813Z,80.21
2022-08-02T13:45:13.416Z,80.45
2022-08-02T13:48:03.388Z,81.92
2022-08-02T13:50:32.996Z,82.84
2022-08-02T13:53:01.533Z,83.27
2022-08-02T13:55:31.080Z,84.05
2022-08-02T13:58:00.620Z,84.19
2022-08-02T14:00:35.570Z,84.52
2022-08-02T14:03:07.061Z,86.13
2022-08-02T14:05:48.460Z,86.42
2022-08-02T14:08:23.066Z,87.05
2022-08-02T14:10:52.100Z,87.17
2022-08-02T14:13:20.767Z,87.82
2022-08-02T14:15:49.236Z,87.49
2022-08-02T14:18:17.619Z,87.57
2022-08-02T14:20:46.667Z,87.80
2022-08-02T14:23:15.175Z,88.12
2022-08-02T14:25:44.133Z,88.63
2022-08-02T14:28:12.653Z,89.13
2022-08-02T14:30:41.093Z,89.77
2022-08-02T14:33:09.488Z,90.41
2022-08-02T14:35:38.072Z,90.01
2022-08-02T14:38:07.257Z,90.55
2022-08-02T14:40:36.206Z,90.44
2022-08-02T14:43:04.983Z,90.79
2022-08-02T14:45:40.142Z,90.77
2022-08-02T14:48:12.313Z,90.03
2022-08-02T14:50:41.245Z,88.89
2022-08-02T14:53:12.564Z,88.68
2022-08-02T14:55:42.712Z,87.61
2022-08-02T14:58:12.025Z,86.34
2022-08-02T15:00:43.906Z,86.24
2022-08-02T15:03:13.512Z,85.99
2022-08-02T15:05:42.099Z,85.99
2022-08-02T15:08:10.579Z,85.47
2022-08-02T15:10:38.940Z,85.06
2022-08-02T15:13:07.612Z,84.54
2022-08-02T15:15:43.357Z,83.83
2022-08-02T15:18:14.196Z,83.77
2022-08-02T15:20:43.950Z,83.45
2022-08-02T15:23:24.965Z,83.20
2022-08-02T15:26:04.074Z,84.01
2022-08-02T15:28:33.137Z,83.22
2022-08-02T15:31:01.518Z,83.30
2022-08-02T15:33:29.891Z,83.11
2022-08-02T15:36:00.030Z,82.97
2022-08-02T15:38:28.811Z,83.57
2022-08-02T15:41:00.654Z,83.74
2022-08-02T15:43:29.217Z,83.77
2022-08-02T15:46:00.174Z,83.62
2022-08-02T15:48:28.681Z,83.57
2022-08-02T15:50:58.093Z,83.91
2022-08-02T15:53:26.777Z,83.12
2022-08-02T15:56:05.721Z,82.86
2022-08-02T15:58:40.656Z,82.78
2022-08-02T16:01:13.340Z,82.99
2022-08-02T16:03:45.151Z,84.13
2022-08-02T16:06:13.591Z,83.37
2022-08-02T16:08:45.264Z,83.48
2022-08-02T16:11:22.887Z,82.96
2022-08-02T16:13:54.637Z,84.46
2022-08-02T16:16:25.015Z,84.19
2022-08-02T16:18:56.436Z,83.85
2022-08-02T16:21:25.825Z,83.60
2022-08-02T16:24:02.593Z,83.14
2022-08-02T16:26:32.147Z,82.62
2022-08-02T16:29:02.925Z,83.11
2022-08-02T16:31:31.491Z,83.73
2022-08-02T16:34:00.799Z,83.66
2022-08-02T16:36:30.582Z,84.04
2022-08-02T16:38:59.183Z,83.48
2022-08-02T16:41:50.530Z,84.18
2022-08-02T16:44:15.905Z,83.83
2022-08-02T16:46:45.667Z,84.00
2022-08-02T16:50:05.092Z,84.53
2022-08-02T16:52:03.158Z,84.97
2022-08-02T16:54:32.287Z,84.82
2022-08-02T16:57:00.717Z,85.36
2022-08-02T16:59:41.421Z,85.42
2022-08-02T17:02:17.945Z,85.63
2022-08-02T17:04:47.615Z,85.61
2022-08-02T17:08:16.338Z,85.31
2022-08-02T17:10:09.546Z,85.50
2022-08-02T17:12:39.343Z,84.99
2022-08-02T17:16:01.361Z,83.59
2022-08-02T17:17:58.234Z,82.85
2022-08-02T17:20:26.970Z,82.57
2022-08-02T17:22:56.296Z,82.29
2022-08-02T17:25:31.739Z,82.53
2022-08-02T17:28:01.051Z,83.03
2022-08-02T17:30:29.987Z,82.14
2022-08-02T17:33:01.636Z,81.76
2022-08-02T17:35:43.480Z,81.63
2022-08-02T17:38:27.380Z,82.00
2022-08-02T17:40:56.655Z,82.15
2022-08-02T17:43:29.005Z,82.23
2022-08-02T17:45:59.863Z,82.13
2022-08-02T17:48:49.234Z,82.26
2022-08-02T17:52:14.797Z,82.30
2022-08-02T17:54:06.212Z,81.81
2022-08-02T17:56:35.066Z,82.46
2022-08-02T17:59:20.884Z,82.25
2022-08-02T18:01:52.868Z,82.67
2022-08-02T18:04:27.750Z,83.30
2022-08-02T18:06:59.019Z,83.28
2022-08-02T18:09:33.027Z,83.92
2022-08-02T18:12:03.007Z,84.02
2022-08-02T18:14:31.812Z,84.25
2022-08-02T18:17:00.717Z,84.42
2022-08-02T18:19:33.171Z,84.95
2022-08-02T18:22:12.141Z,85.12
2022-08-02T18:24:40.915Z,85.69
2022-08-02T18:27:13.142Z,85.67
2022-08-02T18:29:41.551Z,85.76
2022-08-02T18:32:12.200Z,85.92
2022-08-02T18:34:40.966Z,86.05
2022-08-02T18:37:17.746Z,86.14
2022-08-02T18:39:51.381Z,86.65
2022-08-02T18:42:20.269Z,87.22
2022-08-02T18:44:48.969Z,87.55
2022-08-02T18:47:17.519Z,87.93
2022-08-02T18:52:34.215Z,89.10
2022-08-02T18:55:07.390Z,89.74
2022-08-02T18:58:18.331Z,90.25
2022-08-02T19:00:27.660Z,91.06
2022-08-02T19:02:56.182Z,92.01
2022-08-02T19:05:53.699Z,92.38
2022-08-02T19:08:13.306Z,93.04
2022-08-02T19:10:49.153Z,93.62
2022-08-02T19:13:18.903Z,94.36
2022-08-02T19:15:47.982Z,95.16
2022-08-02T19:18:16.378Z,96.01
2022-08-02T19:20:48.339Z,96.72
2022-08-02T19:23:17.376Z,97.47
2022-08-02T19:25:54.507Z,98.29
2022-08-02T19:28:26.158Z,99.03
2022-08-02T19:31:11.819Z,99.62
2022-08-02T19:34:05.870Z,100.00
2022-08-02T19:36:28.905Z,100.00
2022-08-02T19:38:59.326Z,100.00
2022-08-02T19:41:27.732Z,100.00
2022-08-02T19:47:04.249Z,100.00
2022-08-02T19:49:40.862Z,100.00
2022-08-02T19:52:20.437Z,100.00
2022-08-02T19:54:55.944Z,100.00
2022-08-02T19:57:42.075Z,100.00
2022-08-02T20:00:11.911Z,100.00
2022-08-02T20:02:49.966Z,100.00
2022-08-02T20:05:26.604Z,100.00
2022-08-02T20:07:56.410Z,100.00
2022-08-02T20:10:25.512Z,100.00
2022-08-02T20:12:54.694Z,100.00
2022-08-02T20:15:23.265Z,100.00
2022-08-02T20:18:13.342Z,100.00
2022-08-02T20:20:45.226Z,100.00
2022-08-02T20:23:32.286Z,100.00
2022-08-02T20:26:06.168Z,100.00
2022-08-02T20:28:41.526Z,100.00
2022-08-02T20:31:12.317Z,100.00
2022-08-02T20:33:55.850Z,100.00
2022-08-02T20:36:26.600Z,100.00
2022-08-02T20:38:55.510Z,100.00
2022-08-02T20:41:37.194Z,100.00
2022-08-02T20:44:30.713Z,100.00
2022-08-02T20:46:59.712Z,100.00
2022-08-02T20:49:41.172Z,100.00
2022-08-02T20:52:23.331Z,100.00
2022-08-02T20:54:52.859Z,100.00
2022-08-02T20:57:36.154Z,100.00
2022-08-02T21:00:11.655Z,100.00
2022-08-02T21:02:40.949Z,100.00
2022-08-02T21:05:17.259Z,100.00
2022-08-02T21:07:47.797Z,100.00
2022-08-02T21:10:24.009Z,100.00
2022-08-02T21:12:53.003Z,100.00
2022-08-02T21:15:24.983Z,100.00
2022-08-02T21:17:59.743Z,100.00
2022-08-02T21:20:33.562Z,100.00
2022-08-02T21:23:02.271Z,100.00
2022-08-02T21:25:42.719Z,100.00
2022-08-02T21:28:20.035Z,100.00
2022-08-02T21:30:52.513Z,100.00
2022-08-02T21:33:23.562Z,100.00
2022-08-02T21:35:52.682Z,100.00
2022-08-02T21:38:35.850Z,100.00
2022-08-02T21:41:12.102Z,100.00
2022-08-02T21:43:43.974Z,100.00
2022-08-02T21:46:14.563Z,100.00
2022-08-02T21:48:44.907Z,100.00
2022-08-02T21:51:15.882Z,100.00
2022-08-02T21:54:16.876Z,100.00
2022-08-02T21:56:33.823Z,100.00
2022-08-02T21:59:14.841Z,100.00
2022-08-02T22:01:53.001Z,100.00
2022-08-02T22:04:22.485Z,100.00
2022-08-02T22:06:51.009Z,100.00
2022-08-02T22:09:44.521Z,100.00
2022-08-02T22:12:10.228Z,100.00
2022-08-02T22:14:41.316Z,100.00
2022-08-02T22:17:13.743Z,100.00
2022-08-02T22:19:51.049Z,100.00
2022-08-02T22:22:28.087Z,100.00
2022-08-02T22:24:57.276Z,100.00
2022-08-02T22:28:13.271Z,100.00
2022-08-02T22:30:13.899Z,100.00
2022-08-02T22:33:15.518Z,100.00
2022-08-02T22:35:44.034Z,100.00
2022-08-02T22:38:15.256Z,100.00
2022-08-02T22:40:48.820Z,100.00
2022-08-02T22:43:23.134Z,100.00
2022-08-02T22:45:52.019Z,100.00
2022-08-02T22:48:20.737Z,100.00
2022-08-02T22:50:53.876Z,100.00
2022-08-02T22:53:35.529Z,100.00
2022-08-02T22:56:05.169Z,100.00
2022-08-02T22:58:33.553Z,100.00
2022-08-02T22:58:53.026Z,100.00
2022-08-02T22:59:00.513Z,88.53
2022-08-02T23:01:01.983Z,100.00
2022-08-02T23:03:30.754Z,100.00
2022-08-02T23:05:59.163Z,100.00
2022-08-02T23:08:27.702Z,100.00
2022-08-02T23:10:55.980Z,100.00
2022-08-02T23:13:28.196Z,100.00
2022-08-02T23:16:15.120Z,100.00
2022-08-02T23:19:02.217Z,100.00
2022-08-02T23:22:01.332Z,100.00
2022-08-02T23:24:23.569Z,100.00
2022-08-02T23:26:53.582Z,100.00
2022-08-02T23:29:22.609Z,100.00
2022-08-02T23:31:50.990Z,100.00
2022-08-02T23:34:21.254Z,100.00
2022-08-02T23:36:49.689Z,100.00
2022-08-02T23:39:18.060Z,100.00
2022-08-02T23:41:54.625Z,100.00
2022-08-02T23:44:25.130Z,100.00
2022-08-02T23:46:54.883Z,100.00
2022-08-02T23:49:24.513Z,100.00
2022-08-02T23:51:59.576Z,100.00
2022-08-02T23:54:30.783Z,100.00
2022-08-02T23:56:59.429Z,100.00
2022-08-02T23:59:27.855Z,100.00
